Estación Meteorológica de la Universidad de Murcia
Estación Meteorológica de la Universidad de Murcia
Universidad de Murcia
 

Humedad relativaHumedad relativa

 

Máxima: 67,8 % a las 07:21:00 del día 21/01/2023
Mínima: 0 % a las 12:09:00 del día 21/01/2023

||Humedad máxima últimos meses|| ---- ||Humedad mínima últimos meses||


Humedad máxima

  • 1 - 67,8 % del día 21/01/2023
  • 2 - 34,9 % del día 20/01/2023
  • 3 - 0,5 % del día 19/01/2023
  • 4 - 54,9 % del día 18/01/2023
  • 5 - 0 % del día 17/01/2023
  • 6 - 27,2 % del día 16/01/2023
  • 7 - 41,2 % del día 15/01/2023
  • 8 - 52,8 % del día 14/01/2023
  • 9 - 86,5 % del día 13/01/2023
  • 10 - 76,9 % del día 12/01/2023
  • 11 - 49,7 % del día 11/01/2023
  • 12 - 48,3 % del día 10/01/2023
  • 13 - 23,6 % del día 09/01/2023
  • 14 - 53,1 % del día 08/01/2023
  • 15 - 86,5 % del día 07/01/2023
  • 16 - 81 % del día 06/01/2023
  • 17 - 86,5 % del día 05/01/2023
  • 18 - 86,5 % del día 04/01/2023
  • 19 - 86,5 % del día 03/01/2023
  • 20 - 58,6 % del día 02/01/2023
  • 21 - 46,5 % del día 01/01/2023
  • 22 - 23,9 % del día 31/12/2022
  • 23 - 30,3 % del día 30/12/2022
  • 24 - 41,1 % del día 29/12/2022
  • 25 - 50,6 % del día 28/12/2022
  • 26 - 46,6 % del día 27/12/2022
  • 27 - 86,5 % del día 26/12/2022
  • 28 - 82,6 % del día 25/12/2022
  • 29 - 74,2 % del día 24/12/2022
  • 30 - 54,3 % del día 23/12/2022
  • 31 - 42,9 % del día 22/12/2022
  • 32 - 86,5 % del día 21/12/2022
  • 33 - 86,5 % del día 20/12/2022
  • 34 - 86,5 % del día 19/12/2022
  • 35 - 86,5 % del día 18/12/2022
  • 36 - 82,3 % del día 17/12/2022
  • 37 - 76,1 % del día 16/12/2022
  • 38 - 86,5 % del día 15/12/2022
  • 39 - 86,5 % del día 14/12/2022
  • 40 - 51,4 % del día 13/12/2022
  • 41 - 86,5 % del día 12/12/2022
  • 42 - 86,5 % del día 11/12/2022
  • 43 - 71,8 % del día 10/12/2022
  • 44 - 86,5 % del día 09/12/2022
  • 45 - 86,5 % del día 08/12/2022
  • 46 - 86,5 % del día 07/12/2022
  • 47 - 86,5 % del día 06/12/2022

||Volver al inicio de la página||


Humedad mínima

  • 1 - 0 % del día 21/01/2023
  • 2 - 0 % del día 20/01/2023
  • 3 - 0 % del día 19/01/2023
  • 4 - 0 % del día 18/01/2023
  • 5 - 999,9 % del día 17/01/2023
  • 6 - 0 % del día 16/01/2023
  • 7 - 0 % del día 15/01/2023
  • 8 - 0 % del día 14/01/2023
  • 9 - 0 % del día 13/01/2023
  • 10 - 0 % del día 12/01/2023
  • 11 - 0 % del día 11/01/2023
  • 12 - 0 % del día 10/01/2023
  • 13 - 0 % del día 09/01/2023
  • 14 - 0 % del día 08/01/2023
  • 15 - 0 % del día 07/01/2023
  • 16 - 0 % del día 06/01/2023
  • 17 - 0 % del día 05/01/2023
  • 18 - 8 % del día 04/01/2023
  • 19 - 0 % del día 03/01/2023
  • 20 - 0 % del día 02/01/2023
  • 21 - 0 % del día 01/01/2023
  • 22 - 0 % del día 31/12/2022
  • 23 - 0 % del día 30/12/2022
  • 24 - 0 % del día 29/12/2022
  • 25 - 0 % del día 28/12/2022
  • 26 - 0 % del día 27/12/2022
  • 27 - 0 % del día 26/12/2022
  • 28 - 0 % del día 25/12/2022
  • 29 - 0 % del día 24/12/2022
  • 30 - 0 % del día 23/12/2022
  • 31 - 0 % del día 22/12/2022
  • 32 - 0 % del día 21/12/2022
  • 33 - 11,6 % del día 20/12/2022
  • 34 - 17,3 % del día 19/12/2022
  • 35 - 12,9 % del día 18/12/2022
  • 36 - 0 % del día 17/12/2022
  • 37 - 0 % del día 16/12/2022
  • 38 - 3,7 % del día 15/12/2022
  • 39 - 0 % del día 14/12/2022
  • 40 - 0 % del día 13/12/2022
  • 41 - 0 % del día 12/12/2022
  • 42 - 2,6 % del día 11/12/2022
  • 43 - 0 % del día 10/12/2022
  • 44 - 8,4 % del día 09/12/2022
  • 45 - 10,9 % del día 08/12/2022
  • 46 - 10,6 % del día 07/12/2022
  • 47 - 24,4 % del día 06/12/2022

 

|| Temperatura Ambiente|| Velocidad y dirección del viento|| Precipitación|| Radiación Solar Global y PAR|| Temperatura y humedad del suelo|| Presión atmosférica|| Más información|| Volver a la página principal|| Volver al inicio de la página||


Estación Meteorológica de la Universidad de Murcia
http://estacion.um.es/
Informacion actualizada a: 23/01/2023 a las 14:08:00